Airfield :
LOGIN :

Register | Disclaimer

   EN    FR    IT 

 










Legend :    VFR   Marginal VFR   IFR   Intensive IFR   Very Intensive IFR
Visi :
Ceiling :
>= 8 km
>= 3000ft
5 to 8 km
1000 to 3000 ft
1500m to 5 km
500 to 1000 ft
800 to 1500m
200 to 500 ft
< 800m
< 200 ft
Symbols :   Thunderstorms  Fog  Heavy snow  Heavy precipitations  Wind > 20 kt
SIGMETs :     Misc.  Thunderstorms  Icing  Turbulence  Mountain Waves  Volcanic Ashes






- Airport Elevation : 143 ft


LGEL - Elefsis

CURRENT METAR :
  • 131650Z 06008KT 6000 RA FEW012 SCT025 OVC070 14/13 Q1010

EXPIRED METARs :
  • 131620Z 08008KT 6000 RA FEW012 SCT025 OVC070 15/13 Q1010
  • 131550Z 10008KT 7000 -RA FEW012 SCT025 OVC070 16/14 Q1010
  • 131520Z 05009KT 8000 -RA FEW012 SCT025 OVC070 16/14 Q1010
  • 131450Z 10006KT 8000 -RA FEW015 BKN025 OVC070 16/14 Q1010
  • 131420Z 09007KT 8000 -RA FEW015 BKN025 OVC070 16/15 Q1010

TAF TAF LGEL
Valid from the 13 at 12:00 until the 14 at 12:00 UTC


131100Z 1312/1412 VRB05KT 9999 SCT020 BKN070
PROB40
TEMPO 1312/1318 5000 RA
PROB30
TEMPO 1312/1315 3000 TSRA SCT015 FEW018CB BKN070



MET'MAP, your aeronautical weather chart ! - Copyright ORBIFLY December 2007 - Disclaimer

ORBIFLY MET'MAP TEAM :

Programming & Development : Alexandra Zaïnal
Concept & Development : Baudouin d'Aumeries
Co-Development & Prog : Marc-Olivier Méhu
Technical & hardware support : Manuel Goepfert

Contact : metmap@orbifly.com




SOURCES & CREDITS :

   NOAA